Flight Track Log - Related Links

Times and Time Zones

All times are in EDT time to prevent confusion due to time zone crossing. See the EJM90 flight status page for this flight to view local times or setup timezone preferences in your user account.

Time Position Orientation Groundspeed Altitude Reporting Facility
EDT Latitude Longitude Course Direction KTS MPH feet Rate Location/Type
Thu 11:46:59 AM 28.5333 -81.3500 254° West 154 177 1,100  Level Orlando TRACON
Thu 11:47:59 AM 28.5167 -81.4167 254° West 230 265 1,500 789 Climbing Orlando TRACON
Thu 11:48:53 AM 28.5000 -81.4667 249° West 241 277 2,600 1,486 Climbing Orlando TRACON
Thu 11:49:48 AM 28.4833 -81.5500 257° West 276 318 4,200 2,829 Climbing Orlando TRACON
Thu 11:52:06 AM 28.6233 -81.6036 341° North 227 261 11,700 3,303 Climbing Jacksonville Center
Thu 11:53:06 AM 28.7086 -81.5553 26° Northeast 260 299 15,100 2,800 Climbing Jacksonville Center
Thu 11:54:06 AM 28.8083 -81.5278 14° North 316 364 17,300 2,200 Climbing Jacksonville Center
Thu 11:55:06 AM 28.9211 -81.5406 354° North 364 419 19,500 2,350 Climbing Jacksonville Center
Thu 11:56:06 AM 29.0383 -81.5531 355° North 395 455 22,000 2,200 Climbing Jacksonville Center
Thu 11:57:06 AM 29.1575 -81.5681 354° North 415 478 23,900 1,600 Climbing Jacksonville Center
Thu 11:58:06 AM 29.2892 -81.5950 350° North 433 498 25,200 1,200 Climbing Jacksonville Center
Thu 11:59:06 AM 29.4147 -81.6386 343° North 446 513 26,300 1,250 Climbing Jacksonville Center
Thu 12:00:06 PM 29.5428 -81.6869 342° North 467 537 27,700 1,450 Climbing Jacksonville Center
Thu 12:01:06 PM 29.6725 -81.7356 342° North 478 550 29,200 1,550 Climbing Jacksonville Center
Thu 12:02:06 PM 29.8003 -81.7797 343° North 478 550 30,800 1,600 Climbing Jacksonville Center
Thu 12:03:06 PM 29.9239 -81.8261 342° North 478 550 32,400 1,100 Climbing Jacksonville Center
Thu 12:04:06 PM 30.0517 -81.8678 344° North 478 550 33,000 250 Climbing Jacksonville Center
Thu 12:05:06 PM 30.1792 -81.9147 342° North 478 550 32,900  Descending Jacksonville Center
Thu 12:06:06 PM 30.3069 -81.9639 342° North 478 550 33,000  Climbing Jacksonville Center
Thu 12:07:06 PM 30.4325 -82.0108 342° North 478 550 32,900  Descending Jacksonville Center
Thu 12:08:06 PM 30.5667 -82.0675 340° North 488 562 33,000 50 Climbing Jacksonville Center
Thu 12:09:06 PM 30.6942 -82.1147 342° North 488 562 33,000  Level Jacksonville Center
Thu 12:10:06 PM 30.8197 -82.1619 342° North 483 556 33,000  Level Jacksonville Center
Thu 12:11:06 PM 30.9308 -82.2047 342° North 477 549 33,000  Level Jacksonville Center
Thu 12:12:06 PM 31.0583 -82.2522 342° North 477 549 33,000  Level Jacksonville Center
Thu 12:13:06 PM 31.1817 -82.3025 341° North 472 543 33,000  Level Jacksonville Center
Thu 12:14:06 PM 31.3094 -82.3478 343° North 472 543 33,000  Level Jacksonville Center
Thu 12:15:06 PM 31.4494 -82.3886 346° North 466 536 33,000  Level Jacksonville Center
Thu 12:16:06 PM 31.5789 -82.4025 355° North 466 536 33,000  Level Jacksonville Center
Thu 12:17:39 PM 31.7717 -82.4289 353° North 481 554 33,000  Level Atlanta Center
Thu 12:18:39 PM 31.8992 -82.4464 353° North 481 554 33,000  Level Atlanta Center
Thu 12:19:39 PM 32.0308 -82.4586 356° North 476 548 33,000  Level Atlanta Center
Thu 12:20:39 PM 32.1583 -82.4736 354° North 469 540 33,000  Level Atlanta Center
Thu 12:21:39 PM 32.2858 -82.4933 353° North 461 531 33,000 -300 Level Atlanta Center
Thu 12:22:39 PM 32.4014 -82.5506 337° Northwest 446 513 32,400 -800 Descending Atlanta Center
Thu 12:23:39 PM 32.5067 -82.6375 325° Northwest 440 506 31,400 -850 Descending Atlanta Center
Thu 12:24:39 PM 32.5703 -82.7350 308° West 413 475 30,700 -1,150 Descending Atlanta Center
Thu 12:25:39 PM 32.6300 -82.8353 305° West 392 451 29,100 -1,700 Descending Atlanta Center
Thu 12:26:39 PM 32.6769 -82.9506 296° West 381 438 27,300 -1,700 Descending Atlanta Center
Thu 12:27:39 PM 32.7156 -83.0661 292° West 381 438 25,700 -1,500 Descending Atlanta Center
Thu 12:28:39 PM 32.7517 -83.1744 292° West 369 425 24,300 -1,500 Descending Atlanta Center
Thu 12:29:39 PM 32.8128 -83.2653 309° West 353 406 22,700 -1,900 Descending Atlanta Center
Thu 12:30:39 PM 32.8803 -83.3561 312° West 360 414 20,500 -2,200 Descending Atlanta Center
Thu 12:31:39 PM 32.9411 -83.4350 313° West 348 400 18,300 -2,100 Descending Atlanta Center
Thu 12:32:39 PM 32.9978 -83.5211 308° West 335 386 16,300 -2,150 Descending Atlanta Center
Thu 12:33:39 PM 33.0253 -83.6128 290° West 322 371 14,000 -1,150 Descending Atlanta Center
Thu 12:34:39 PM 33.0653 -83.6967 300° West 287 330 14,000 50 Level Atlanta Center
Thu 12:35:39 PM 33.1364 -83.7511 327° Northwest 271 312 14,100  Climbing Atlanta Center
Thu 12:36:39 PM 33.2053 -83.8056 327° Northwest 289 333 14,000 -250 Descending Atlanta Center
Thu 12:37:39 PM 33.2619 -83.8797 312° West 294 338 13,600 -700 Descending Atlanta Center
Thu 12:38:39 PM 33.3078 -83.9469 309° West 299 344 12,600 -800 Descending Atlanta Center
Thu 12:39:39 PM 33.3664 -84.0364 308° West 299 344 12,000 -300 Descending Atlanta Center
Thu 12:40:39 PM 33.4144 -84.1086 309° West 294 338 12,000 58 Level Atlanta Center
Thu 12:41:23 PM 33.4667 -84.1500 327° Northwest 294 338 12,100 58 Climbing Atlanta TRACON
Thu 12:42:23 PM 33.5333 -84.2000 328° Northwest 249 287 12,100  Level Atlanta TRACON
Thu 12:43:23 PM 33.5833 -84.2333 331° Northwest 248 285 12,100  Level Atlanta TRACON
Thu 12:44:23 PM 33.6500 -84.2833 328° Northwest 253 291 12,100 -100 Level Atlanta TRACON
Thu 12:45:23 PM 33.7000 -84.3333 320° Northwest 261 300 11,900 -650 Descending Atlanta TRACON
Thu 12:46:23 PM 33.7333 -84.4000 301° West 250 288 10,800 -1,450 Descending Atlanta TRACON
Thu 12:47:23 PM 33.7333 -84.4833 270° West 258 297 9,000 -1,500 Descending Atlanta TRACON
Thu 12:48:23 PM 33.7333 -84.5667 270° West 241 277 7,800 -1,350 Descending Atlanta TRACON
Thu 12:49:23 PM 33.7333 -84.6500 270° West 244 281 6,300 -1,350 Descending Atlanta TRACON
Thu 12:50:23 PM 33.7333 -84.7333 270° West 242 278 5,100 -600 Descending Atlanta TRACON
Thu 12:51:23 PM 33.7333 -84.8000 270° West 243 280 5,100  Level Atlanta TRACON
Thu 12:52:23 PM 33.7167 -84.8833 257° West 251 289 5,100  Level Atlanta TRACON
Thu 12:53:23 PM 33.6667 -84.8500 151° Southeast 221 254 5,100  Level Atlanta TRACON
Thu 12:54:23 PM 33.6500 -84.7833 107° East 190 219 5,100 -50 Level Atlanta TRACON
Thu 12:55:23 PM 33.6500 -84.7333 90° East 184 212 5,000 -150 Descending Atlanta TRACON
Thu 12:56:23 PM 33.6500 -84.6667 90° East 184 212 4,800 -600 Descending Atlanta TRACON
Thu 12:57:23 PM 33.6500 -84.6000 90° East 172 198 3,800 -900 Descending Atlanta TRACON
Thu 12:58:23 PM 33.6500 -84.5500 90° East 164 189 3,000 -800 Descending Atlanta TRACON
Thu 12:59:23 PM 33.6500 -84.5000 90° East 135 155 2,200 -750 Descending Atlanta TRACON
Thu 01:00:23 PM 33.6500 -84.4667 90° East 117 135 1,500 -700 Descending Atlanta TRACON
Thu 01:02:00 PM 33.6367 -84.4279 64° Northeast  Level Estimated
Thu 01:09:00 PM 33.6367 -84.4279 64° Northeast  Level Estimated
Thu 01:10:00 PM 33.6367 -84.4279 64° Northeast  Level Estimated
Thu 01:11:00 PM 33.6367 -84.4279 64° Northeast  Level Estimated
Thu 01:12:00 PM 33.6367 -84.4279 64° Northeast  Level Estimated
Thu 01:13:00 PM 33.6367 -84.4279 64° Northeast  Level Estimated
Thu 01:14:00 PM 33.6367 -84.4279 64° Northeast  Level Estimated
Thu 01:15:00 PM 33.6367 -84.4279 64° Northeast  Level Estimated
Thu 01:16:00 PM 33.6367 -84.4279 64° Northeast  Level Estimated
Thu 01:17:00 PM 33.6367 -84.4279 64° Northeast  Level Estimated
Thu 01:18:00 PM 33.6367 -84.4279 64° Northeast  Level Estimated
Thu 01:19:00 PM 33.6367 -84.4279 64° Northeast  Level Estimated

Login

Don't have an account? Register now (free) for customized features, flight alerts, and more!